Time;durP1;ratioP1;P1;durP2;ratioP2;P2;SDS_P1;SDS_P2;PMS_P1;PMS_P2;Temp;Humidity;BMP_temperature;BMP_pressure;BME280_temperature;BME280_humidity;BME280_pressure;Samples;Min_cycle;Max_cycle;Signal;HPM_P1;HPM_P2
2021/08/06 00:01:01;;;;;;;3.53;3.22;;;21.60;55.50;;;;;;5024751;28;20167;-79
2021/08/06 00:03:27;;;;;;;3.30;3.00;;;21.70;55.50;;;;;;5025638;28;20167;-78
2021/08/06 00:05:54;;;;;;;3.20;2.92;;;21.70;55.50;;;;;;5007525;28;20163;-78
2021/08/06 00:08:21;;;;;;;3.10;2.90;;;21.70;55.50;;;;;;5007746;28;20167;-78
2021/08/06 00:10:49;;;;;;;3.33;3.03;;;21.70;55.40;;;;;;5003638;28;20172;-78
2021/08/06 00:13:15;;;;;;;3.50;3.20;;;21.70;55.50;;;;;;4987760;28;20233;-78
2021/08/06 00:15:42;;;;;;;3.45;3.15;;;21.70;55.50;;;;;;4987948;28;20615;-78
2021/08/06 00:18:08;;;;;;;3.20;2.90;;;21.70;55.50;;;;;;5005142;28;20205;-78
2021/08/06 00:20:37;;;;;;;3.20;2.90;;;21.70;56.00;;;;;;5003815;28;20164;-78
2021/08/06 00:23:10;;;;;;;3.60;3.30;;;21.70;55.40;;;;;;4987326;28;20227;-78
2021/08/06 00:25:38;;;;;;;3.30;3.00;;;21.70;55.40;;;;;;5070632;28;20188;-78
2021/08/06 00:28:10;;;;;;;3.30;3.00;;;21.70;55.40;;;;;;4987868;28;20179;-78
2021/08/06 00:30:38;;;;;;;3.30;3.00;;;21.70;55.40;;;;;;4970922;28;20195;-78
2021/08/06 00:33:08;;;;;;;3.28;2.97;;;21.70;55.40;;;;;;5054362;28;20188;-78
2021/08/06 00:35:38;;;;;;;3.50;3.20;;;21.60;55.40;;;;;;5037602;28;20180;-78
2021/08/06 00:38:08;;;;;;;2.90;2.70;;;21.70;55.50;;;;;;5053425;28;20176;-78
2021/08/06 00:40:36;;;;;;;3.38;3.08;;;21.70;55.40;;;;;;4987460;28;20186;-78
2021/08/06 00:43:03;;;;;;;3.08;2.80;;;21.70;55.40;;;;;;5003424;28;20203;-78
2021/08/06 00:45:29;;;;;;;3.35;3.05;;;21.70;55.40;;;;;;4987166;28;20172;-78
2021/08/06 00:47:55;;;;;;;3.47;3.17;;;21.70;55.30;;;;;;5003258;28;20214;-78
2021/08/06 00:50:25;;;;;;;3.17;2.88;;;21.70;55.40;;;;;;4988475;28;20203;-78
2021/08/06 00:52:56;;;;;;;3.20;2.95;;;21.60;55.40;;;;;;4986756;28;20543;-78
2021/08/06 00:55:22;;;;;;;3.50;3.10;;;21.60;55.40;;;;;;4970673;28;20184;-78
2021/08/06 00:57:52;;;;;;;3.40;3.10;;;21.70;55.40;;;;;;5004814;28;20153;-78
2021/08/06 01:00:23;;;;;;;3.30;3.00;;;21.60;55.40;;;;;;5037603;28;20183;-78
2021/08/06 01:03:04;;;;;;;3.20;2.90;;;21.60;55.40;;;;;;5053959;28;20215;-78
2021/08/06 01:05:37;;;;;;;3.35;3.05;;;21.60;55.50;;;;;;5052892;28;20191;-80
2021/08/06 01:08:19;;;;;;;2.97;2.75;;;21.60;55.50;;;;;;5053781;28;20184;-78
2021/08/06 01:10:54;;;;;;;3.38;3.08;;;21.60;55.50;;;;;;5072835;28;20237;-78
2021/08/06 01:13:36;;;;;;;3.10;2.90;;;21.70;55.40;;;;;;5054639;28;20251;-78
2021/08/06 01:16:08;;;;;;;3.10;2.90;;;21.70;55.50;;;;;;5055352;28;20273;-78
2021/08/06 01:18:36;;;;;;;3.28;2.97;;;21.60;55.40;;;;;;5056654;28;20187;-78
2021/08/06 01:21:09;;;;;;;3.00;2.80;;;21.60;55.50;;;;;;4988564;28;20184;-78
2021/08/06 01:23:38;;;;;;;3.38;3.08;;;21.60;55.50;;;;;;5006456;28;20190;-78
2021/08/06 01:26:10;;;;;;;3.17;2.88;;;21.70;55.50;;;;;;4989647;28;20278;-78
2021/08/06 01:28:39;;;;;;;2.90;2.70;;;21.60;55.50;;;;;;4990356;28;20252;-78
2021/08/06 01:31:07;;;;;;;3.10;2.80;;;21.70;55.50;;;;;;5090135;28;20598;-78
2021/08/06 01:33:34;;;;;;;3.20;2.90;;;21.60;55.40;;;;;;5090610;28;20183;-78
2021/08/06 01:36:01;;;;;;;3.10;2.90;;;21.70;55.50;;;;;;5005590;28;20579;-78
2021/08/06 01:38:26;;;;;;;3.47;3.17;;;21.60;55.40;;;;;;4993558;28;20171;-78
2021/08/06 01:41:13;;;;;;;3.63;3.33;;;21.60;55.50;;;;;;5026151;28;20193;-78
2021/08/06 01:43:55;;;;;;;3.22;3.00;;;21.60;55.50;;;;;;5025350;28;20195;-78
2021/08/06 01:46:43;;;;;;;3.30;3.00;;;21.60;55.50;;;;;;5054957;28;20207;-78
2021/08/06 01:49:16;;;;;;;3.28;2.97;;;21.60;55.50;;;;;;5074031;28;20175;-78
2021/08/06 01:51:43;;;;;;;3.15;2.85;;;21.70;55.50;;;;;;5025957;28;20159;-78
2021/08/06 01:54:10;;;;;;;3.30;3.00;;;21.60;55.50;;;;;;5009948;28;20163;-78
2021/08/06 01:56:36;;;;;;;3.40;3.10;;;21.60;55.50;;;;;;5009762;28;20152;-78
2021/08/06 01:59:03;;;;;;;3.40;3.10;;;21.60;55.50;;;;;;5025774;28;20258;-78
2021/08/06 02:01:33;;;;;;;3.05;2.85;;;21.60;55.50;;;;;;5025810;28;20199;-78
2021/08/06 02:04:03;;;;;;;3.20;2.90;;;21.60;55.40;;;;;;5094533;28;20217;-78
2021/08/06 02:06:30;;;;;;;3.40;3.10;;;21.60;55.40;;;;;;5076849;28;20184;-78
2021/08/06 02:08:55;;;;;;;3.60;3.30;;;21.60;55.50;;;;;;5025215;28;20267;-78
2021/08/06 02:11:27;;;;;;;3.38;3.08;;;21.60;55.50;;;;;;5009475;28;20196;-78
2021/08/06 02:13:58;;;;;;;3.30;3.00;;;21.60;55.50;;;;;;5008484;28;20184;-78
2021/08/06 02:16:24;;;;;;;3.00;2.80;;;21.60;55.50;;;;;;5025473;28;20163;-78
2021/08/06 02:18:51;;;;;;;3.40;3.10;;;21.60;55.50;;;;;;5024927;28;20541;-78
2021/08/06 02:21:20;;;;;;;3.25;2.95;;;21.60;55.50;;;;;;5009186;28;20178;-78
2021/08/06 02:23:53;;;;;;;3.10;2.80;;;21.60;55.50;;;;;;5025284;28;20156;-78
2021/08/06 02:26:24;;;;;;;3.42;3.13;;;21.70;55.50;;;;;;5059402;28;20627;-78
2021/08/06 02:28:54;;;;;;;3.08;2.88;;;21.60;55.50;;;;;;5076287;28;20650;-78
2021/08/06 02:31:24;;;;;;;3.60;3.30;;;21.60;55.50;;;;;;5076949;28;20247;-78
2021/08/06 02:33:55;;;;;;;3.38;3.08;;;21.60;55.50;;;;;;5076539;28;20183;-78
2021/08/06 02:36:25;;;;;;;3.33;3.03;;;21.60;55.50;;;;;;5007485;28;20188;-78
2021/08/06 02:38:58;;;;;;;3.50;3.20;;;21.60;55.50;;;;;;4991849;28;20634;-78
2021/08/06 02:41:26;;;;;;;3.47;3.10;;;21.60;55.50;;;;;;5075953;28;20207;-78
2021/08/06 02:43:52;;;;;;;3.00;2.80;;;21.60;55.50;;;;;;5026961;28;20191;-78
2021/08/06 02:46:19;;;;;;;3.38;3.08;;;21.60;55.50;;;;;;5024898;28;20152;-78
2021/08/06 02:48:48;;;;;;;3.30;3.05;;;21.60;55.50;;;;;;5007312;28;20152;-78
2021/08/06 02:51:17;;;;;;;3.25;2.95;;;21.60;55.50;;;;;;5024679;28;20155;-78
2021/08/06 02:53:43;;;;;;;3.30;3.00;;;21.60;55.50;;;;;;5024492;28;20167;-78
2021/08/06 02:56:10;;;;;;;3.20;2.90;;;21.60;55.50;;;;;;5024440;28;20163;-78
2021/08/06 02:58:46;;;;;;;3.40;3.00;;;21.60;55.50;;;;;;4992424;28;20545;-78
2021/08/06 03:01:14;;;;;;;3.30;3.00;;;21.50;55.50;;;;;;5076634;28;20255;-78
2021/08/06 03:03:41;;;;;;;3.13;2.83;;;21.50;55.50;;;;;;4991068;28;20187;-78
2021/08/06 03:06:09;;;;;;;3.08;2.83;;;21.60;55.50;;;;;;5058842;28;20249;-78
2021/08/06 03:08:35;;;;;;;3.40;3.10;;;21.60;55.50;;;;;;5093216;28;20233;-78
2021/08/06 03:11:02;;;;;;;3.45;3.15;;;21.60;55.50;;;;;;5011146;28;20193;-78
2021/08/06 03:13:34;;;;;;;3.38;3.08;;;21.60;55.50;;;;;;5079525;28;20189;-78
2021/08/06 03:16:00;;;;;;;3.20;2.90;;;21.50;55.50;;;;;;5010586;28;20183;-78
2021/08/06 03:18:26;;;;;;;3.25;2.95;;;21.50;55.50;;;;;;5027320;28;20155;-78
2021/08/06 03:20:55;;;;;;;2.83;2.63;;;21.60;55.50;;;;;;5027462;28;20219;-78
2021/08/06 03:23:28;;;;;;;3.20;2.90;;;21.60;55.50;;;;;;5011537;28;20194;-78
2021/08/06 03:25:56;;;;;;;3.30;3.00;;;21.60;55.50;;;;;;5010674;28;20269;-78
2021/08/06 03:28:27;;;;;;;3.30;3.00;;;21.60;55.50;;;;;;5095461;28;20204;-78
2021/08/06 03:30:57;;;;;;;3.38;3.10;;;21.50;55.50;;;;;;5010529;28;20183;-78
2021/08/06 03:33:26;;;;;;;3.80;3.00;;;21.60;55.50;;;;;;5026830;28;20163;-78
2021/08/06 03:35:51;;;;;;;3.03;2.83;;;21.60;55.50;;;;;;5027092;28;20155;-78
2021/08/06 03:38:20;;;;;;;3.28;2.97;;;21.60;55.50;;;;;;5011288;28;20163;-78
2021/08/06 03:40:46;;;;;;;3.10;2.80;;;21.50;55.50;;;;;;5010964;28;20669;-78
2021/08/06 03:43:12;;;;;;;3.20;2.90;;;21.60;55.50;;;;;;5027817;28;20270;-78
2021/08/06 03:45:39;;;;;;;3.10;2.80;;;21.50;55.40;;;;;;5027700;28;20259;-78
2021/08/06 03:48:07;;;;;;;3.22;2.95;;;21.60;55.40;;;;;;5095506;28;20187;-78
2021/08/06 03:50:35;;;;;;;3.17;2.88;;;21.60;55.40;;;;;;5078788;28;20198;-79
2021/08/06 03:53:06;;;;;;;3.40;3.10;;;21.60;55.40;;;;;;5010974;28;20272;-78
2021/08/06 03:55:32;;;;;;;3.15;2.85;;;21.60;55.40;;;;;;5010240;28;20550;-78
2021/08/06 03:58:00;;;;;;;3.38;3.08;;;21.60;55.50;;;;;;5027268;28;20155;-78
2021/08/06 04:00:32;;;;;;;3.63;3.33;;;21.60;55.40;;;;;;5009271;28;20217;-78
2021/08/06 04:03:04;;;;;;;3.10;2.90;;;21.60;55.40;;;;;;4993806;28;20235;-78
2021/08/06 04:05:35;;;;;;;3.10;2.80;;;21.60;55.30;;;;;;4993286;28;20194;-78
2021/08/06 04:08:06;;;;;;;2.92;2.72;;;21.60;55.30;;;;;;5025733;28;20198;-78
2021/08/06 04:10:34;;;;;;;3.17;2.92;;;21.60;55.20;;;;;;5095285;28;20251;-78
2021/08/06 04:13:00;;;;;;;3.20;2.90;;;21.70;55.30;;;;;;5027392;28;20170;-79
2021/08/06 04:15:25;;;;;;;3.20;2.90;;;21.60;55.10;;;;;;5027042;28;20166;-79
2021/08/06 04:17:56;;;;;;;3.00;2.70;;;21.60;55.20;;;;;;5026730;28;20189;-79
2021/08/06 04:20:25;;;;;;;2.83;2.63;;;21.70;55.30;;;;;;5010643;28;20159;-78
2021/08/06 04:22:51;;;;;;;2.63;2.42;;;21.70;55.20;;;;;;5010172;28;20664;-79
2021/08/06 04:25:16;;;;;;;2.90;2.70;;;21.70;54.90;;;;;;5027031;28;20162;-79
2021/08/06 04:27:43;;;;;;;3.17;2.88;;;21.80;54.80;;;;;;5027208;28;20176;-79
2021/08/06 04:30:11;;;;;;;2.70;2.50;;;21.80;54.70;;;;;;5009405;28;20163;-79
2021/08/06 04:32:36;;;;;;;2.88;2.67;;;21.90;54.80;;;;;;5026641;28;20170;-79
2021/08/06 04:35:03;;;;;;;2.97;2.78;;;21.90;54.70;;;;;;5010333;28;20170;-78
2021/08/06 04:37:33;;;;;;;2.70;2.50;;;21.80;54.70;;;;;;5010397;28;20170;-78
2021/08/06 04:40:02;;;;;;;3.15;2.85;;;21.90;54.70;;;;;;5027197;28;20178;-78
2021/08/06 04:42:32;;;;;;;2.55;2.35;;;21.90;54.60;;;;;;5025484;28;20314;-78
2021/08/06 04:45:03;;;;;;;2.65;2.45;;;21.90;54.70;;;;;;5077022;28;20183;-79
2021/08/06 04:47:31;;;;;;;2.95;2.72;;;21.90;54.60;;;;;;4993083;28;20182;-79
2021/08/06 04:49:57;;;;;;;2.60;2.40;;;21.90;54.60;;;;;;5008980;28;20235;-79
2021/08/06 04:52:25;;;;;;;2.78;2.58;;;22.00;54.40;;;;;;5026387;28;20223;-78
2021/08/06 04:54:59;;;;;;;3.22;2.38;;;22.00;54.40;;;;;;5008632;28;20178;-79
2021/08/06 04:57:26;;;;;;;2.60;2.40;;;22.00;54.40;;;;;;5093865;28;20305;-79
2021/08/06 04:59:52;;;;;;;3.10;2.80;;;22.00;54.50;;;;;;5094205;28;20175;-78
2021/08/06 05:02:20;;;;;;;2.78;2.58;;;22.00;54.40;;;;;;5043451;28;20273;-79
2021/08/06 05:04:50;;;;;;;2.60;2.40;;;21.90;54.60;;;;;;5077394;28;20182;-78
2021/08/06 05:07:18;;;;;;;2.70;2.50;;;22.00;54.60;;;;;;5094338;28;20214;-78
2021/08/06 05:09:45;;;;;;;2.60;2.40;;;22.00;54.50;;;;;;5009151;28;20226;-78
2021/08/06 05:12:11;;;;;;;2.70;2.50;;;22.10;54.40;;;;;;5025190;28;20170;-79
2021/08/06 05:14:36;;;;;;;2.60;2.40;;;22.10;54.30;;;;;;5026842;28;20177;-79
2021/08/06 05:17:04;;;;;;;2.92;2.72;;;22.10;54.20;;;;;;5026419;28;20558;-78
2021/08/06 05:19:31;;;;;;;2.60;2.40;;;22.10;54.20;;;;;;5025606;28;20150;-79
2021/08/06 05:21:57;;;;;;;2.72;2.53;;;22.20;54.30;;;;;;5025863;28;20250;-79
2021/08/06 05:24:23;;;;;;;2.50;2.30;;;22.10;54.10;;;;;;5031260;28;20163;-78
2021/08/06 05:26:50;;;;;;;2.78;2.47;;;22.10;54.30;;;;;;5045347;28;20187;-76
2021/08/06 05:29:16;;;;;;;2.83;2.05;;;22.10;54.80;;;;;;5096086;28;20202;-78
2021/08/06 05:31:44;;;;;;;2.42;2.22;;;22.10;54.20;;;;;;5044354;28;20181;-77
2021/08/06 05:34:12;;;;;;;2.33;2.13;;;22.10;54.20;;;;;;5044082;28;20151;-78
2021/08/06 05:36:37;;;;;;;2.80;2.60;;;22.10;54.10;;;;;;5028563;28;20174;-78
2021/08/06 05:39:05;;;;;;;2.60;2.40;;;22.20;54.10;;;;;;5028848;28;20193;-77
2021/08/06 05:41:33;;;;;;;2.47;2.28;;;22.20;54.10;;;;;;5028566;28;20270;-78
2021/08/06 05:43:59;;;;;;;2.60;2.40;;;22.20;54.10;;;;;;5045362;28;20229;-77
2021/08/06 05:46:28;;;;;;;2.40;2.20;;;22.20;54.10;;;;;;5045049;28;20162;-77
2021/08/06 05:48:57;;;;;;;2.70;2.50;;;22.20;54.10;;;;;;5114409;28;20182;-78
2021/08/06 05:51:26;;;;;;;2.78;2.58;;;22.20;54.20;;;;;;5079970;28;20185;-77
2021/08/06 05:53:54;;;;;;;2.50;2.30;;;22.20;54.00;;;;;;5096925;28;20186;-78
2021/08/06 05:56:22;;;;;;;2.35;2.15;;;22.30;54.10;;;;;;5080036;28;20228;-78
2021/08/06 05:58:53;;;;;;;2.40;2.20;;;22.30;53.90;;;;;;5097202;28;20183;-78
2021/08/06 06:01:21;;;;;;;2.47;2.28;;;22.30;53.90;;;;;;5027976;28;20183;-78
2021/08/06 06:03:52;;;;;;;2.72;2.53;;;22.30;53.90;;;;;;5080003;28;20189;-78
2021/08/06 06:06:25;;;;;;;2.35;2.15;;;22.30;54.00;;;;;;5028244;28;20190;-78
2021/08/06 06:08:51;;;;;;;2.60;2.40;;;22.30;54.10;;;;;;5078612;28;20218;-78
2021/08/06 06:11:19;;;;;;;2.42;2.22;;;22.20;53.90;;;;;;5044601;28;20219;-78
2021/08/06 06:13:49;;;;;;;2.50;2.30;;;22.20;54.10;;;;;;5096870;28;20194;-78
2021/08/06 06:16:20;;;;;;;2.40;2.20;;;22.20;54.10;;;;;;5097137;28;20253;-78
2021/08/06 06:18:47;;;;;;;2.40;2.20;;;22.20;54.20;;;;;;5097179;28;20179;-78
2021/08/06 06:21:14;;;;;;;2.30;2.10;;;22.20;54.10;;;;;;5027017;28;20189;-78
2021/08/06 06:23:41;;;;;;;2.60;2.40;;;22.30;54.00;;;;;;5013024;28;20178;-78
2021/08/06 06:26:08;;;;;;;2.45;2.25;;;22.30;53.90;;;;;;5014673;28;20187;-78
2021/08/06 06:28:35;;;;;;;2.22;2.03;;;22.30;54.00;;;;;;5030909;28;20649;-78
2021/08/06 06:31:02;;;;;;;2.00;1.90;;;22.20;54.00;;;;;;5100804;28;20186;-78
2021/08/06 06:33:29;;;;;;;2.10;2.00;;;22.30;54.10;;;;;;5083385;28;20190;-78
2021/08/06 06:35:56;;;;;;;2.50;2.30;;;22.30;54.00;;;;;;5014964;28;20170;-78
2021/08/06 06:38:23;;;;;;;2.40;2.20;;;22.30;54.00;;;;;;5014602;28;20182;-78
2021/08/06 06:40:48;;;;;;;2.28;2.08;;;22.30;54.00;;;;;;5100129;28;20213;-78
2021/08/06 06:43:15;;;;;;;2.45;2.25;;;22.40;54.00;;;;;;5048045;28;20232;-78
2021/08/06 06:45:43;;;;;;;2.40;2.20;;;22.30;53.90;;;;;;5028713;28;20158;-78
2021/08/06 06:48:09;;;;;;;2.30;2.10;;;22.30;54.20;;;;;;5029973;28;20178;-77
2021/08/06 06:50:40;;;;;;;2.50;2.30;;;22.30;54.00;;;;;;5047475;28;20266;-78
2021/08/06 06:53:06;;;;;;;2.33;2.13;;;22.30;53.90;;;;;;5006528;28;20184;-78
2021/08/06 06:55:31;;;;;;;2.97;2.13;;;22.30;53.80;;;;;;5022732;28;20183;-78
2021/08/06 06:57:57;;;;;;;2.50;2.30;;;22.30;53.90;;;;;;5002517;28;20184;-82
2021/08/06 07:00:25;;;;;;;2.38;2.17;;;22.40;53.80;;;;;;4997689;28;20168;-78
2021/08/06 07:02:51;;;;;;;2.30;2.10;;;22.40;54.00;;;;;;4998715;28;20211;-80
2021/08/06 07:05:17;;;;;;;2.63;1.98;;;22.30;54.10;;;;;;5013707;28;20235;-82
2021/08/06 07:07:43;;;;;;;2.65;2.10;;;22.30;54.10;;;;;;4997583;28;20179;-78
2021/08/06 07:10:10;;;;;;;3.33;2.40;;;22.30;54.10;;;;;;4998310;28;20254;-78
2021/08/06 07:12:39;;;;;;;2.38;2.17;;;22.30;54.10;;;;;;5050557;28;20243;-79
2021/08/06 07:15:09;;;;;;;3.25;2.22;;;22.30;54.10;;;;;;4967048;28;20194;-78
2021/08/06 07:17:37;;;;;;;2.20;2.00;;;22.20;54.30;;;;;;5051947;28;20564;-79
2021/08/06 07:20:12;;;;;;;3.47;2.20;;;22.30;54.20;;;;;;4983401;28;20191;-79
2021/08/06 07:22:38;;;;;;;2.63;2.22;;;22.30;54.00;;;;;;4984960;28;20242;-78
2021/08/06 07:25:04;;;;;;;2.20;1.90;;;22.20;53.90;;;;;;5020576;28;20185;-78
2021/08/06 07:27:30;;;;;;;2.67;2.13;;;22.30;53.70;;;;;;5038804;28;20166;-79
2021/08/06 07:29:57;;;;;;;1.90;1.80;;;22.30;53.70;;;;;;5058035;28;20178;-79
2021/08/06 07:32:24;;;;;;;2.90;2.20;;;22.30;53.50;;;;;;5044351;28;20170;-80
2021/08/06 07:34:51;;;;;;;2.95;2.20;;;22.30;53.70;;;;;;5026702;28;20182;-77
2021/08/06 07:37:17;;;;;;;2.67;2.10;;;22.30;53.80;;;;;;5028698;28;20671;-78
2021/08/06 07:39:43;;;;;;;2.17;2.08;;;22.30;53.80;;;;;;5046349;28;20159;-77
2021/08/06 07:42:16;;;;;;;2.20;2.00;;;22.30;53.90;;;;;;5044481;28;20178;-80
2021/08/06 07:44:47;;;;;;;2.20;2.00;;;22.30;54.00;;;;;;5043133;28;20218;-75
2021/08/06 07:47:13;;;;;;;3.95;2.10;;;22.30;53.80;;;;;;5026675;28;20182;-76
2021/08/06 07:49:41;;;;;;;2.95;2.00;;;22.40;53.60;;;;;;5043243;28;20165;-76
2021/08/06 07:52:14;;;;;;;2.90;1.90;;;22.40;53.60;;;;;;5062862;28;20534;-79
2021/08/06 07:54:40;;;;;;;2.67;2.20;;;22.40;53.60;;;;;;5022304;28;20533;-79
2021/08/06 07:57:06;;;;;;;3.65;2.28;;;22.40;53.70;;;;;;5038918;28;20183;-80
2021/08/06 07:59:32;;;;;;;2.10;1.90;;;22.40;53.60;;;;;;5040084;28;20150;-79
2021/08/06 08:02:01;;;;;;;2.47;2.25;;;22.40;53.50;;;;;;5024889;28;20186;-78
2021/08/06 08:04:33;;;;;;;3.33;2.20;;;22.40;53.50;;;;;;5004642;28;20290;-81
2021/08/06 08:07:03;;;;;;;2.97;2.13;;;22.40;53.50;;;;;;5021026;28;20184;-79
2021/08/06 08:09:29;;;;;;;4.03;2.20;;;22.40;53.50;;;;;;5003953;28;20225;-82
2021/08/06 08:11:57;;;;;;;2.53;2.10;;;22.50;53.40;;;;;;5037381;28;20262;-82
2021/08/06 08:14:23;;;;;;;3.20;2.08;;;22.50;53.30;;;;;;5054185;28;20158;-78
2021/08/06 08:16:50;;;;;;;2.20;1.90;;;22.50;53.30;;;;;;5039274;28;20159;-78
2021/08/06 08:19:19;;;;;;;2.20;2.00;;;22.50;53.30;;;;;;5057532;28;20157;-81
2021/08/06 08:21:46;;;;;;;2.25;2.05;;;22.40;53.30;;;;;;5090525;28;20235;-78
2021/08/06 08:24:14;;;;;;;2.15;1.98;;;22.50;53.00;;;;;;5106465;28;20221;-81
2021/08/06 08:26:44;;;;;;;2.22;2.03;;;22.50;53.00;;;;;;5039210;28;20161;-81
2021/08/06 08:29:12;;;;;;;2.30;2.10;;;22.60;52.90;;;;;;5037950;28;20154;-81
2021/08/06 08:31:42;;;;;;;1.92;1.83;;;22.60;52.90;;;;;;5054444;28;20166;-79
2021/08/06 08:34:09;;;;;;;2.15;2.00;;;22.50;52.80;;;;;;5020021;28;20660;-78
2021/08/06 08:36:35;;;;;;;2.88;1.92;;;22.50;52.90;;;;;;5036693;28;20159;-81
2021/08/06 08:39:04;;;;;;;4.22;2.10;;;22.60;52.70;;;;;;5054637;28;20154;-80
2021/08/06 08:41:30;;;;;;;2.50;2.30;;;22.50;53.00;;;;;;5088553;28;20178;-78
2021/08/06 08:43:56;;;;;;;1.98;1.88;;;22.60;52.70;;;;;;5037093;28;20494;-80
2021/08/06 08:46:26;;;;;;;2.28;2.08;;;22.50;52.80;;;;;;5035684;28;20230;-79
2021/08/06 08:48:53;;;;;;;2.13;1.92;;;22.50;52.70;;;;;;5035790;28;20154;-79
2021/08/06 08:51:20;;;;;;;2.65;2.13;;;22.50;52.80;;;;;;5053211;28;20234;-80
2021/08/06 08:53:46;;;;;;;2.55;2.00;;;22.50;53.10;;;;;;5037147;28;20166;-80
2021/08/06 08:56:14;;;;;;;2.30;2.10;;;22.50;53.00;;;;;;5052858;28;20154;-82
2021/08/06 08:58:42;;;;;;;2.47;2.17;;;22.60;53.00;;;;;;5036525;28;20143;-82
2021/08/06 09:01:12;;;;;;;2.00;1.90;;;22.60;53.10;;;;;;5087868;28;20712;-78
2021/08/06 09:03:41;;;;;;;2.25;2.05;;;22.60;52.80;;;;;;5088599;28;20217;-80
2021/08/06 09:06:09;;;;;;;2.13;2.03;;;22.60;53.00;;;;;;5036006;28;20684;-81
2021/08/06 09:08:36;;;;;;;2.30;2.10;;;22.60;53.00;;;;;;5036116;28;20233;-83
2021/08/06 09:11:18;;;;;;;3.22;2.10;;;22.50;53.00;;;;;;5034882;28;20166;-79
2021/08/06 09:13:49;;;;;;;3.13;1.98;;;22.50;53.10;;;;;;5081476;28;20174;-81
2021/08/06 09:16:18;;;;;;;2.28;2.08;;;22.50;53.00;;;;;;5103146;28;20189;-82
2021/08/06 09:18:48;;;;;;;2.30;2.10;;;22.60;52.90;;;;;;5104046;28;20178;-81
2021/08/06 09:21:22;;;;;;;2.20;2.00;;;22.60;52.80;;;;;;5087552;28;20182;-82
2021/08/06 09:23:55;;;;;;;2.28;2.08;;;22.60;52.50;;;;;;5087707;28;20291;-83
2021/08/06 09:26:33;;;;;;;1.95;1.85;;;22.60;52.50;;;;;;5069172;28;20536;-80
2021/08/06 09:29:03;;;;;;;2.00;1.90;;;22.60;52.60;;;;;;5103993;28;20215;-80
2021/08/06 09:31:30;;;;;;;2.58;2.03;;;22.70;52.70;;;;;;5020273;28;20166;-81
2021/08/06 09:34:20;;;;;;;2.42;2.22;;;22.60;52.60;;;;;;5035909;28;20238;-81
2021/08/06 09:37:03;;;;;;;2.83;1.98;;;22.60;53.60;;;;;;4987146;28;20219;-82
2021/08/06 09:39:31;;;;;;;1.92;1.83;;;22.50;52.70;;;;;;5036145;28;20150;-79
2021/08/06 09:42:01;;;;;;;2.10;1.90;;;22.50;52.20;;;;;;5053862;28;20194;-81
2021/08/06 09:44:31;;;;;;;2.20;2.00;;;22.60;52.20;;;;;;5054363;28;20151;-79
2021/08/06 09:47:14;;;;;;;2.38;1.90;;;22.50;52.30;;;;;;5104527;28;20260;-79
2021/08/06 09:49:47;;;;;;;1.75;1.65;;;22.40;52.40;;;;;;5071542;28;20192;-81
2021/08/06 09:52:14;;;;;;;2.30;2.10;;;22.40;52.20;;;;;;5086984;28;20190;-81
2021/08/06 09:54:40;;;;;;;1.90;1.80;;;22.40;52.10;;;;;;5036185;28;20162;-79
2021/08/06 09:57:12;;;;;;;2.00;1.90;;;22.40;52.00;;;;;;5052639;28;20216;-80
2021/08/06 09:59:38;;;;;;;1.92;1.83;;;22.40;51.80;;;;;;5090386;28;20190;-80
2021/08/06 10:02:36;;;;;;;1.73;1.63;;;22.40;51.90;;;;;;5038937;28;20190;-79
2021/08/06 10:05:10;;;;;;;1.95;1.75;;;22.30;51.40;;;;;;5038162;28;20158;-79
2021/08/06 10:07:43;;;;;;;1.80;1.70;;;22.40;51.60;;;;;;5090799;28;20186;-78
2021/08/06 10:10:11;;;;;;;1.95;1.85;;;22.40;50.70;;;;;;5105396;28;20716;-83
2021/08/06 10:12:38;;;;;;;1.92;1.83;;;22.50;51.20;;;;;;5038872;28;20159;-79
2021/08/06 10:15:09;;;;;;;2.30;2.10;;;22.50;50.90;;;;;;5038658;28;20614;-81
2021/08/06 10:17:36;;;;;;;1.90;1.80;;;22.40;51.00;;;;;;5106447;28;20189;-78
2021/08/06 10:20:05;;;;;;;1.77;1.67;;;22.40;50.80;;;;;;5105582;28;20183;-80
2021/08/06 10:22:33;;;;;;;1.75;1.65;;;22.60;50.60;;;;;;5107343;28;20215;-80
2021/08/06 10:25:03;;;;;;;1.88;1.77;;;22.50;51.00;;;;;;5089552;28;20174;-80
2021/08/06 10:27:30;;;;;;;1.80;1.70;;;22.40;51.20;;;;;;5088299;28;20274;-78
2021/08/06 10:30:03;;;;;;;2.45;1.70;;;22.40;51.30;;;;;;5106885;28;20743;-80
2021/08/06 10:32:34;;;;;;;1.95;1.77;;;22.30;51.20;;;;;;5087921;28;20178;-81
2021/08/06 10:35:10;;;;;;;2.17;1.63;;;22.30;51.50;;;;;;5106389;28;20530;-83
2021/08/06 10:37:56;;;;;;;1.83;1.73;;;22.30;51.50;;;;;;5104314;28;20186;-80
2021/08/06 10:40:52;;;;;;;1.73;1.60;;;22.30;51.00;;;;;;5036790;28;20271;-80
2021/08/06 10:43:33;;;;;;;1.70;1.60;;;22.30;51.20;;;;;;5023394;28;20225;-80
2021/08/06 10:45:59;;;;;;;1.58;1.48;;;22.30;51.30;;;;;;5021014;28;20534;-82
2021/08/06 10:48:35;;;;;;;1.77;1.67;;;22.40;50.70;;;;;;5038052;28;20159;-80
2021/08/06 10:51:23;;;;;;;2.10;1.80;;;22.50;50.80;;;;;;5019250;28;20185;-79
2021/08/06 10:54:29;;;;;;;2.38;1.90;;;22.40;51.10;;;;;;5036855;28;20648;-79
2021/08/06 10:57:18;;;;;;;1.90;1.80;;;22.40;51.10;;;;;;5020314;28;20210;-80
2021/08/06 10:59:45;;;;;;;1.90;1.80;;;22.30;51.00;;;;;;5022121;28;20170;-79
2021/08/06 11:02:38;;;;;;;1.95;1.80;;;22.40;50.80;;;;;;5037316;28;20202;-79
2021/08/06 11:05:30;;;;;;;1.80;1.70;;;22.30;50.60;;;;;;5036182;28;20216;-82
2021/08/06 11:08:00;;;;;;;1.70;1.60;;;22.40;50.50;;;;;;5036746;28;20155;-80
2021/08/06 11:10:45;;;;;;;3.78;2.10;;;22.40;50.50;;;;;;5018703;28;20305;-81
2021/08/06 11:13:43;;;;;;;1.48;1.38;;;22.40;50.50;;;;;;5037244;28;20250;-79
2021/08/06 11:16:12;;;;;;;1.80;1.70;;;22.40;50.40;;;;;;5036140;28;20155;-79
2021/08/06 11:18:44;;;;;;;2.10;1.90;;;22.40;50.40;;;;;;5089848;28;20179;-79
2021/08/06 11:21:12;;;;;;;1.60;1.50;;;22.40;50.20;;;;;;5090125;28;20182;-79
2021/08/06 11:23:41;;;;;;;1.60;1.50;;;22.40;50.20;;;;;;5020418;28;20305;-78
2021/08/06 11:26:12;;;;;;;2.05;1.60;;;22.40;50.10;;;;;;5106900;28;20270;-78
2021/08/06 11:28:43;;;;;;;2.00;1.80;;;22.40;49.90;;;;;;5088639;28;20183;-81
2021/08/06 11:31:17;;;;;;;1.67;1.58;;;22.50;49.80;;;;;;5088981;28;20212;-80
2021/08/06 11:34:00;;;;;;;2.10;1.90;;;22.50;49.40;;;;;;5019649;28;20159;-78
2021/08/06 11:36:29;;;;;;;1.80;1.70;;;22.50;50.00;;;;;;5070913;28;20208;-78
2021/08/06 11:39:13;;;;;;;1.65;1.55;;;22.50;49.70;;;;;;5088179;28;20237;-77
2021/08/06 11:41:52;;;;;;;1.90;1.80;;;22.40;50.00;;;;;;5021632;28;20175;-78
2021/08/06 11:44:21;;;;;;;1.70;1.60;;;22.40;50.20;;;;;;5104994;28;20642;-77
2021/08/06 11:46:50;;;;;;;1.83;1.30;;;22.50;50.00;;;;;;5090369;28;20278;-79
2021/08/06 11:49:19;;;;;;;1.67;1.58;;;22.40;49.80;;;;;;5022488;28;20230;-77
2021/08/06 11:51:50;;;;;;;2.30;2.10;;;22.50;49.50;;;;;;5108174;28;20198;-78
2021/08/06 11:54:19;;;;;;;1.85;1.73;;;22.40;49.80;;;;;;5089393;28;20179;-80
2021/08/06 11:56:55;;;;;;;1.70;1.60;;;22.40;49.70;;;;;;5072714;28;20255;-79
2021/08/06 11:59:24;;;;;;;1.90;1.80;;;22.40;49.80;;;;;;5004719;28;20186;-78
2021/08/06 12:01:51;;;;;;;2.05;1.85;;;22.50;49.70;;;;;;5105238;28;20207;-80
2021/08/06 12:04:36;;;;;;;1.77;1.67;;;22.40;49.90;;;;;;5038012;28;20195;-77
2021/08/06 12:07:03;;;;;;;1.73;1.60;;;22.40;50.00;;;;;;5091143;28;20178;-77
2021/08/06 12:09:29;;;;;;;1.70;1.60;;;22.40;49.80;;;;;;5048426;28;20277;-81
2021/08/06 12:11:55;;;;;;;1.90;1.80;;;22.40;50.50;;;;;;5060489;28;20190;-81
2021/08/06 12:14:28;;;;;;;1.73;1.60;;;22.40;49.80;;;;;;5060791;28;20158;-77
2021/08/06 12:16:54;;;;;;;1.67;1.58;;;22.30;49.80;;;;;;5042027;28;20151;-78
2021/08/06 12:19:22;;;;;;;2.17;1.45;;;22.30;49.60;;;;;;5041487;28;20573;-77
2021/08/06 12:21:52;;;;;;;1.90;1.80;;;22.40;49.50;;;;;;5093542;28;20289;-79
2021/08/06 12:24:21;;;;;;;1.77;1.67;;;22.40;49.60;;;;;;5093122;28;20185;-78
2021/08/06 12:26:56;;;;;;;1.50;1.40;;;22.40;49.50;;;;;;5109986;28;20185;-79
2021/08/06 12:29:39;;;;;;;1.98;1.48;;;22.50;49.50;;;;;;5109907;28;20218;-80
2021/08/06 12:32:11;;;;;;;1.70;1.60;;;22.60;49.40;;;;;;5109095;28;20182;-77
2021/08/06 12:34:45;;;;;;;1.60;1.50;;;22.50;49.50;;;;;;5092186;28;20640;-78
2021/08/06 12:37:16;;;;;;;1.75;1.65;;;22.50;49.70;;;;;;5108473;28;20186;-77
2021/08/06 12:39:54;;;;;;;1.70;1.60;;;22.50;49.80;;;;;;5110346;28;20177;-78
2021/08/06 12:42:32;;;;;;;1.60;1.50;;;22.50;49.80;;;;;;5108555;28;20213;-77
2021/08/06 12:45:03;;;;;;;1.77;1.67;;;22.60;49.80;;;;;;5106472;28;20209;-82
2021/08/06 12:47:52;;;;;;;1.83;1.65;;;22.60;49.80;;;;;;5089711;28;20182;-81
2021/08/06 12:50:30;;;;;;;1.83;1.73;;;22.60;49.90;;;;;;5105665;28;20655;-78
2021/08/06 12:53:08;;;;;;;1.88;1.77;;;22.60;49.80;;;;;;5089486;28;20213;-77
2021/08/06 12:55:36;;;;;;;1.83;1.73;;;22.60;50.00;;;;;;5023986;28;20677;-78
2021/08/06 12:58:19;;;;;;;2.25;2.05;;;22.60;49.90;;;;;;5089681;28;20186;-78
2021/08/06 13:00:49;;;;;;;1.70;1.60;;;22.50;50.80;;;;;;5067873;28;20242;-80
2021/08/06 13:03:21;;;;;;;1.70;1.60;;;22.50;50.50;;;;;;5089133;28;20214;-80